createdAt,value
2023-04-26T00:02:24.584Z,7.03
2023-04-26T00:04:55.893Z,6.35
2023-04-26T00:07:24.838Z,7.78
2023-04-26T00:09:53.361Z,7.93
2023-04-26T00:12:22.016Z,7.85
2023-04-26T00:14:51.468Z,7.32
2023-04-26T00:17:19.532Z,7.47
2023-04-26T00:19:47.485Z,8.27
2023-04-26T00:22:16.089Z,7.22
2023-04-26T00:24:44.361Z,8.45
2023-04-26T00:27:12.365Z,7.20
2023-04-26T00:29:40.336Z,7.65
2023-04-26T00:32:09.850Z,8.05
2023-04-26T00:34:38.686Z,11.32
2023-04-26T00:37:07.315Z,10.63
2023-04-26T00:39:35.354Z,6.30
2023-04-26T00:42:03.406Z,6.85
2023-04-26T00:44:31.368Z,9.88
2023-04-26T00:46:59.558Z,8.68
2023-04-26T00:49:29.611Z,9.63
2023-04-26T00:51:58.351Z,7.55
2023-04-26T00:54:27.002Z,8.27
2023-04-26T00:56:55.836Z,7.22
2023-04-26T00:59:24.473Z,9.77
2023-04-26T01:01:52.524Z,10.02
2023-04-26T01:04:20.717Z,8.80
2023-04-26T01:06:50.339Z,7.95
2023-04-26T01:09:19.980Z,10.52
2023-04-26T01:11:48.660Z,12.45
2023-04-26T01:14:17.208Z,9.55
2023-04-26T01:16:47.507Z,9.68
2023-04-26T01:19:16.646Z,10.32
2023-04-26T01:21:44.984Z,11.57
2023-04-26T01:24:15.277Z,10.23
2023-04-26T01:26:45.842Z,11.82
2023-04-26T01:29:17.931Z,7.55
2023-04-26T01:31:46.288Z,7.47
2023-04-26T01:34:14.987Z,9.90
2023-04-26T01:36:43.110Z,10.98
2023-04-26T01:39:11.738Z,9.85
2023-04-26T01:41:41.182Z,12.93
2023-04-26T01:44:09.395Z,9.15
2023-04-26T01:46:37.544Z,10.32
2023-04-26T01:49:05.990Z,13.95
2023-04-26T01:51:34.335Z,11.80
2023-04-26T01:54:02.420Z,12.77
2023-04-26T01:56:30.730Z,10.82
2023-04-26T01:59:00.052Z,12.70
2023-04-26T02:01:28.032Z,11.75
2023-04-26T02:03:56.012Z,10.82
2023-04-26T02:06:24.057Z,9.00
2023-04-26T02:08:53.302Z,15.02
2023-04-26T02:11:21.525Z,11.98
2023-04-26T02:13:49.590Z,12.48
2023-04-26T02:16:18.971Z,10.18
2023-04-26T02:18:47.252Z,12.40
2023-04-26T02:21:17.563Z,10.48
2023-04-26T02:23:45.617Z,10.38
2023-04-26T02:26:14.194Z,10.65
2023-04-26T02:28:42.888Z,15.57
2023-04-26T02:31:11.154Z,14.18
2023-04-26T02:33:40.597Z,14.98
2023-04-26T02:36:09.147Z,12.35
2023-04-26T02:38:37.706Z,12.60
2023-04-26T02:41:05.988Z,12.82
2023-04-26T02:43:33.961Z,12.00
2023-04-26T02:46:01.966Z,15.30
2023-04-26T02:48:29.969Z,13.32
2023-04-26T02:50:59.283Z,12.30
2023-04-26T02:53:27.233Z,15.48
2023-04-26T02:55:55.301Z,16.88
2023-04-26T02:58:23.288Z,12.82
2023-04-26T03:00:51.365Z,12.48
2023-04-26T03:03:19.477Z,14.00
2023-04-26T03:05:47.715Z,13.02
2023-04-26T03:08:17.164Z,16.00
2023-04-26T03:10:46.429Z,12.02
2023-04-26T03:13:15.205Z,17.85
2023-04-26T03:15:46.190Z,14.00
2023-04-26T03:18:14.182Z,14.45
2023-04-26T03:20:43.697Z,12.75
2023-04-26T03:23:11.687Z,15.50
2023-04-26T03:25:41.183Z,14.85
2023-04-26T03:28:09.232Z,14.05
2023-04-26T03:30:37.287Z,14.52
2023-04-26T03:33:05.313Z,15.10
2023-04-26T03:35:33.347Z,15.73
2023-04-26T03:38:01.293Z,15.93
2023-04-26T03:40:29.318Z,12.48
2023-04-26T03:42:58.669Z,13.73
2023-04-26T03:45:26.986Z,12.50
2023-04-26T03:47:55.184Z,11.45
2023-04-26T03:50:23.441Z,11.90
2023-04-26T03:52:51.541Z,13.88
2023-04-26T03:55:19.754Z,15.13
2023-04-26T03:57:47.825Z,14.65
2023-04-26T04:00:17.589Z,13.02
2023-04-26T04:02:46.187Z,12.02
2023-04-26T04:05:14.463Z,16.80
2023-04-26T04:07:42.831Z,16.52
2023-04-26T04:10:11.758Z,11.07
2023-04-26T04:12:39.761Z,14.38
2023-04-26T04:15:08.835Z,15.23
2023-04-26T04:17:38.873Z,14.20
2023-04-26T04:20:08.738Z,16.23
2023-04-26T04:22:36.748Z,15.93
2023-04-26T04:25:05.974Z,14.07
2023-04-26T04:27:34.015Z,14.63
2023-04-26T04:30:04.196Z,14.75
2023-04-26T04:32:33.159Z,11.88
2023-04-26T04:35:03.066Z,13.60
2023-04-26T04:37:33.015Z,13.38
2023-04-26T04:40:01.256Z,11.48
2023-04-26T04:42:29.294Z,18.42
2023-04-26T04:44:59.631Z,14.82
2023-04-26T04:47:27.652Z,15.52
2023-04-26T04:49:55.874Z,14.20
2023-04-26T04:52:25.220Z,14.45
2023-04-26T04:54:53.247Z,14.57
2023-04-26T04:57:21.220Z,14.85
2023-04-26T04:59:49.207Z,13.18
2023-04-26T05:02:17.367Z,12.90
2023-04-26T05:04:45.545Z,14.77
2023-04-26T05:07:15.610Z,12.18
2023-04-26T05:09:45.704Z,14.02
2023-04-26T05:12:13.664Z,16.27
2023-04-26T05:14:41.936Z,15.23
2023-04-26T05:17:09.949Z,13.05
2023-04-26T05:19:38.138Z,16.58
2023-04-26T05:22:06.282Z,15.77
2023-04-26T05:24:34.535Z,14.57
2023-04-26T05:27:04.525Z,13.30
2023-04-26T05:29:32.521Z,16.38
2023-04-26T05:32:00.547Z,18.65
2023-04-26T05:34:28.572Z,13.68
2023-04-26T05:36:56.627Z,16.55
2023-04-26T05:39:24.687Z,14.93
2023-04-26T05:41:52.707Z,20.00
2023-04-26T05:44:22.099Z,16.08
2023-04-26T05:46:50.139Z,17.02
2023-04-26T05:49:18.070Z,14.73
2023-04-26T05:51:46.067Z,16.48
2023-04-26T05:54:14.068Z,11.52
2023-04-26T05:56:42.394Z,15.65
2023-04-26T05:59:10.567Z,10.77
2023-04-26T06:01:40.003Z,9.07
2023-04-26T06:04:08.500Z,9.52
2023-04-26T06:06:37.063Z,11.48
2023-04-26T06:09:05.717Z,12.15
2023-04-26T06:11:33.779Z,8.55
2023-04-26T06:14:01.808Z,8.93
2023-04-26T06:16:29.869Z,7.30
2023-04-26T06:18:59.262Z,9.20
2023-04-26T06:21:27.230Z,7.47
2023-04-26T06:23:55.475Z,9.50
2023-04-26T06:26:23.704Z,7.32
2023-04-26T06:28:51.687Z,7.50
2023-04-26T06:31:21.739Z,7.10
2023-04-26T06:33:50.075Z,4.63
2023-04-26T06:36:19.574Z,6.63
2023-04-26T06:38:47.473Z,6.75
2023-04-26T06:41:15.466Z,5.90
2023-04-26T06:43:43.417Z,6.75
2023-04-26T06:46:11.495Z,4.50
2023-04-26T06:48:39.543Z,4.72
2023-04-26T06:51:08.517Z,3.17
2023-04-26T06:53:38.097Z,6.13
2023-04-26T06:56:06.462Z,5.15
2023-04-26T06:58:34.515Z,4.03
2023-04-26T07:01:02.588Z,5.80
2023-04-26T07:03:31.067Z,4.53
2023-04-26T07:05:59.175Z,6.00
2023-04-26T07:08:27.151Z,6.95
2023-04-26T07:10:56.479Z,3.92
2023-04-26T07:13:24.447Z,7.95
2023-04-26T07:15:52.422Z,6.00
2023-04-26T07:18:20.493Z,6.95
2023-04-26T07:20:49.338Z,5.47
2023-04-26T07:23:17.406Z,7.82
2023-04-26T07:25:45.553Z,4.32
2023-04-26T07:28:15.230Z,6.38
2023-04-26T07:30:43.334Z,5.82
2023-04-26T07:33:11.350Z,5.80
2023-04-26T07:35:39.387Z,3.60
2023-04-26T07:38:07.693Z,5.53
2023-04-26T07:40:36.434Z,3.83
2023-04-26T07:43:04.432Z,5.72
2023-04-26T07:45:33.890Z,3.00
2023-04-26T07:48:02.001Z,7.35
2023-04-26T07:50:30.073Z,5.13
2023-04-26T07:52:58.049Z,5.32
2023-04-26T07:55:26.441Z,5.43
2023-04-26T07:57:54.419Z,8.02
2023-04-26T08:00:23.254Z,9.02
2023-04-26T08:02:52.851Z,3.38
2023-04-26T08:05:21.314Z,2.55
2023-04-26T08:07:49.423Z,5.13
2023-04-26T08:10:17.429Z,5.63
2023-04-26T08:12:45.492Z,6.82
2023-04-26T08:15:13.931Z,4.15
2023-04-26T08:17:42.064Z,7.13
2023-04-26T08:20:13.027Z,5.10
2023-04-26T08:22:41.078Z,6.82
2023-04-26T08:25:09.705Z,6.75
2023-04-26T08:27:37.727Z,7.07
2023-04-26T08:30:06.695Z,5.30
2023-04-26T08:32:35.400Z,6.68
2023-04-26T08:35:03.440Z,3.67
2023-04-26T08:37:32.745Z,6.38
2023-04-26T08:40:00.861Z,6.63
2023-04-26T08:42:30.005Z,5.38
2023-04-26T08:45:03.168Z,7.70
2023-04-26T08:47:39.621Z,6.35
2023-04-26T08:50:09.489Z,5.07
2023-04-26T08:52:41.038Z,5.70
2023-04-26T08:55:10.426Z,3.73
2023-04-26T08:57:38.825Z,5.38
2023-04-26T09:00:10.306Z,8.68
2023-04-26T09:02:38.691Z,5.75
2023-04-26T09:05:09.309Z,7.53
2023-04-26T09:07:43.190Z,4.28
2023-04-26T09:10:13.166Z,7.03
2023-04-26T09:12:41.592Z,5.18
2023-04-26T09:15:10.625Z,5.88
2023-04-26T09:17:41.587Z,6.07
2023-04-26T09:20:21.702Z,5.50
2023-04-26T09:22:52.237Z,5.30
2023-04-26T09:25:27.727Z,7.70
2023-04-26T09:27:55.996Z,4.28
2023-04-26T09:30:24.411Z,6.22
2023-04-26T09:32:54.277Z,9.35
2023-04-26T09:35:28.641Z,6.35
2023-04-26T09:38:06.437Z,4.78
2023-04-26T09:40:41.571Z,4.05
2023-04-26T09:43:11.521Z,5.05
2023-04-26T09:45:49.103Z,3.70
2023-04-26T09:48:21.197Z,4.68
2023-04-26T09:50:50.713Z,6.78
2023-04-26T09:53:32.075Z,5.90
2023-04-26T09:56:08.412Z,4.00
2023-04-26T09:58:37.226Z,4.57
2023-04-26T10:01:06.816Z,3.55
2023-04-26T10:03:36.104Z,3.45
2023-04-26T10:06:05.129Z,9.45
2023-04-26T10:08:34.933Z,3.50
2023-04-26T10:11:04.571Z,7.93
2023-04-26T10:13:33.914Z,7.68
2023-04-26T10:16:02.886Z,3.83
2023-04-26T10:18:31.463Z,7.13
2023-04-26T10:21:03.299Z,4.30
2023-04-26T10:23:31.531Z,6.50
2023-04-26T10:26:00.885Z,5.10
2023-04-26T10:29:02.194Z,5.45
2023-04-26T10:32:08.793Z,6.15
2023-04-26T10:34:38.127Z,4.53
2023-04-26T10:37:11.268Z,5.57
2023-04-26T10:39:40.203Z,5.18
2023-04-26T10:42:25.671Z,4.47
2023-04-26T10:44:55.030Z,3.92
2023-04-26T10:47:26.111Z,3.85
2023-04-26T10:49:54.276Z,6.82
2023-04-26T10:52:23.249Z,3.75
2023-04-26T10:54:53.507Z,6.35
2023-04-26T10:57:24.397Z,4.65
2023-04-26T11:00:21.924Z,4.28
2023-04-26T11:02:58.172Z,5.40
2023-04-26T11:05:55.425Z,6.00
2023-04-26T11:08:27.286Z,5.43
2023-04-26T11:11:13.384Z,5.53
2023-04-26T11:13:43.834Z,3.80
2023-04-26T11:16:13.161Z,5.32
2023-04-26T11:18:42.180Z,5.20
2023-04-26T11:21:10.832Z,4.32
2023-04-26T11:23:38.905Z,6.18
2023-04-26T11:26:08.426Z,3.85
2023-04-26T11:28:38.427Z,4.45
2023-04-26T11:31:08.402Z,3.70
2023-04-26T11:33:36.599Z,5.40
2023-04-26T11:36:05.347Z,4.55
2023-04-26T11:38:33.378Z,5.47
2023-04-26T11:41:03.049Z,4.30
2023-04-26T11:43:35.364Z,4.88
2023-04-26T11:46:03.874Z,4.03
2023-04-26T11:48:35.431Z,4.45
2023-04-26T11:51:05.015Z,4.00
2023-04-26T11:53:40.351Z,6.15
2023-04-26T11:56:16.471Z,4.88
2023-04-26T11:58:46.713Z,5.90
2023-04-26T12:01:22.665Z,4.47
2023-04-26T12:03:53.737Z,3.95
2023-04-26T12:06:27.018Z,4.57
2023-04-26T12:08:55.076Z,5.38
2023-04-26T12:11:23.078Z,3.35
2023-04-26T12:13:51.257Z,3.55
2023-04-26T12:16:26.244Z,3.33
2023-04-26T12:18:57.589Z,5.97
2023-04-26T12:21:29.875Z,5.28
2023-04-26T12:23:59.044Z,3.63
2023-04-26T12:26:45.794Z,2.47
2023-04-26T12:29:13.872Z,3.10
2023-04-26T12:31:42.085Z,5.97
2023-04-26T12:34:11.578Z,3.83
2023-04-26T12:36:41.582Z,4.10
2023-04-26T12:39:09.591Z,4.55
2023-04-26T12:41:37.676Z,5.28
2023-04-26T12:44:06.579Z,5.47
2023-04-26T12:46:34.583Z,3.10
2023-04-26T12:49:02.553Z,3.13
2023-04-26T12:51:33.845Z,4.65
2023-04-26T12:54:01.857Z,4.30
2023-04-26T12:56:30.784Z,3.42
2023-04-26T12:58:58.787Z,4.50
2023-04-26T13:01:27.007Z,5.20
2023-04-26T13:03:56.478Z,4.45
2023-04-26T13:06:24.803Z,4.30
2023-04-26T13:08:54.180Z,3.28
2023-04-26T13:11:22.216Z,4.85
2023-04-26T13:13:50.368Z,5.38
2023-04-26T13:16:18.367Z,2.38
2023-04-26T13:18:46.377Z,3.33
2023-04-26T13:21:14.327Z,4.07
2023-04-26T13:23:42.433Z,3.60
2023-04-26T13:26:14.702Z,5.30
2023-04-26T13:28:42.906Z,4.38
2023-04-26T13:31:11.780Z,5.20
2023-04-26T13:33:39.840Z,5.85
2023-04-26T13:36:08.337Z,3.53
2023-04-26T13:38:36.929Z,3.40
2023-04-26T13:41:05.031Z,3.15
2023-04-26T13:43:35.726Z,3.05
2023-04-26T13:46:03.976Z,5.95
2023-04-26T13:48:31.987Z,4.15
2023-04-26T13:51:00.421Z,5.53
2023-04-26T13:53:28.491Z,4.53
2023-04-26T13:55:56.596Z,6.93
2023-04-26T13:58:24.863Z,4.63
2023-04-26T14:00:54.215Z,5.65
2023-04-26T14:03:22.444Z,4.10
2023-04-26T14:05:50.867Z,6.55
2023-04-26T14:08:18.855Z,4.43
2023-04-26T14:10:46.904Z,5.60
2023-04-26T14:13:15.879Z,5.63
2023-04-26T14:15:43.871Z,4.03
2023-04-26T14:18:13.338Z,3.33
2023-04-26T14:20:41.380Z,4.47
2023-04-26T14:23:09.348Z,3.88
2023-04-26T14:25:37.357Z,5.45
2023-04-26T14:28:05.367Z,5.60
2023-04-26T14:30:33.446Z,5.25
2023-04-26T14:33:01.468Z,5.43
2023-04-26T14:35:30.904Z,2.95
2023-04-26T14:37:58.967Z,3.42
2023-04-26T14:40:26.917Z,2.22
2023-04-26T14:42:54.878Z,3.88
2023-04-26T14:45:30.476Z,5.32
2023-04-26T14:48:06.083Z,6.32
2023-04-26T14:50:36.195Z,4.05
2023-04-26T14:53:04.486Z,5.00
2023-04-26T14:55:32.486Z,3.80
2023-04-26T14:58:00.618Z,5.40
2023-04-26T15:00:30.706Z,4.13
2023-04-26T15:02:59.091Z,3.20
2023-04-26T15:05:27.872Z,6.43
2023-04-26T15:07:57.261Z,5.65
2023-04-26T15:10:25.249Z,5.38
2023-04-26T15:12:53.275Z,3.92
2023-04-26T15:15:21.376Z,5.97
2023-04-26T15:17:49.408Z,5.40
2023-04-26T15:20:17.670Z,8.82
2023-04-26T15:22:45.956Z,4.18
2023-04-26T15:25:15.514Z,3.75
2023-04-26T15:27:43.873Z,5.93
2023-04-26T15:30:12.681Z,7.13
2023-04-26T15:32:40.768Z,6.88
2023-04-26T15:35:09.370Z,4.15
2023-04-26T15:37:38.714Z,4.85
2023-04-26T15:40:10.520Z,3.67
2023-04-26T15:42:40.627Z,5.05
2023-04-26T15:45:09.795Z,3.35
2023-04-26T15:47:38.089Z,6.07
2023-04-26T15:50:07.869Z,5.13
2023-04-26T15:52:38.943Z,4.32
2023-04-26T15:55:08.279Z,6.70
2023-04-26T15:57:36.488Z,3.15
2023-04-26T16:00:10.209Z,4.95
2023-04-26T16:02:38.459Z,5.63
2023-04-26T16:05:08.475Z,4.35
2023-04-26T16:07:38.660Z,5.10
2023-04-26T16:10:07.753Z,4.00
2023-04-26T16:12:37.181Z,4.43
2023-04-26T16:15:08.058Z,6.07
2023-04-26T16:17:36.623Z,4.53
2023-04-26T16:20:07.311Z,4.57
2023-04-26T16:22:35.760Z,4.78
2023-04-26T16:25:04.806Z,4.95
2023-04-26T16:27:32.862Z,4.53
2023-04-26T16:30:01.045Z,3.67
2023-04-26T16:32:31.469Z,5.90
2023-04-26T16:34:59.443Z,5.30
2023-04-26T16:37:27.503Z,5.32
2023-04-26T16:39:56.593Z,5.97
2023-04-26T16:42:24.594Z,3.88
2023-04-26T16:44:52.913Z,5.35
2023-04-26T16:47:21.051Z,4.53
2023-04-26T16:49:50.419Z,5.13
2023-04-26T16:52:18.400Z,4.55
2023-04-26T16:54:46.416Z,2.80
2023-04-26T16:57:14.397Z,3.45
2023-04-26T16:59:42.407Z,4.97
2023-04-26T17:02:10.431Z,4.63
2023-04-26T17:04:38.491Z,4.53
2023-04-26T17:07:08.043Z,5.50
2023-04-26T17:09:37.974Z,6.13
2023-04-26T17:12:07.322Z,4.30
2023-04-26T17:14:35.307Z,4.47
2023-04-26T17:17:03.253Z,6.25
2023-04-26T17:19:31.604Z,6.30
2023-04-26T17:21:59.534Z,5.65
2023-04-26T17:24:28.943Z,7.40
2023-04-26T17:26:56.910Z,4.72
2023-04-26T17:29:24.884Z,4.72
2023-04-26T17:31:52.935Z,4.70
2023-04-26T17:34:20.946Z,3.72
2023-04-26T17:36:48.898Z,5.10
2023-04-26T17:39:17.479Z,4.40
2023-04-26T17:41:46.785Z,4.50
2023-04-26T17:44:14.746Z,7.07
2023-04-26T17:46:42.695Z,6.05
2023-04-26T17:49:10.714Z,4.93
2023-04-26T17:51:38.720Z,4.43
2023-04-26T17:54:07.129Z,7.72
2023-04-26T17:56:35.147Z,5.13
2023-04-26T17:59:04.468Z,5.78
2023-04-26T18:01:32.469Z,5.97
2023-04-26T18:04:00.771Z,5.43
2023-04-26T18:06:28.878Z,5.18
2023-04-26T18:08:58.042Z,6.68
2023-04-26T18:11:26.179Z,6.00
2023-04-26T18:13:54.197Z,6.68
2023-04-26T18:16:23.700Z,4.57
2023-04-26T18:18:51.931Z,5.10
2023-04-26T18:21:19.911Z,4.78
2023-04-26T18:23:48.378Z,6.28
2023-04-26T18:26:16.320Z,4.40
2023-04-26T18:28:46.118Z,7.78
2023-04-26T18:31:14.106Z,5.18
2023-04-26T18:33:43.538Z,5.15
2023-04-26T18:36:12.008Z,6.35
2023-04-26T18:38:40.058Z,4.95
2023-04-26T18:41:08.000Z,6.78
2023-04-26T18:43:36.085Z,5.05
2023-04-26T18:46:04.214Z,5.90
2023-04-26T18:48:32.214Z,3.53
2023-04-26T18:51:01.564Z,4.32
2023-04-26T18:53:29.527Z,6.22
2023-04-26T18:55:57.702Z,3.92
2023-04-26T18:58:25.657Z,6.22
2023-04-26T19:00:53.631Z,6.97
2023-04-26T19:03:21.840Z,6.05
2023-04-26T19:05:50.208Z,5.15
2023-04-26T19:08:19.508Z,5.47
2023-04-26T19:10:47.533Z,6.55
2023-04-26T19:13:15.507Z,4.40
2023-04-26T19:15:43.588Z,6.60
2023-04-26T19:18:11.653Z,4.30
2023-04-26T19:20:40.102Z,5.20
2023-04-26T19:23:08.053Z,5.32
2023-04-26T19:25:37.409Z,6.63
2023-04-26T19:28:05.532Z,5.28
2023-04-26T19:30:33.495Z,5.28
2023-04-26T19:33:01.788Z,7.75
2023-04-26T19:35:29.790Z,6.20
2023-04-26T19:37:57.774Z,5.60
2023-04-26T19:40:25.840Z,5.22
2023-04-26T19:42:55.158Z,5.95
2023-04-26T19:45:23.650Z,5.82
2023-04-26T19:47:51.673Z,5.78
2023-04-26T19:50:19.896Z,7.10
2023-04-26T19:52:47.922Z,6.55
2023-04-26T19:55:15.964Z,5.72
2023-04-26T19:57:44.257Z,9.93
2023-04-26T20:00:15.901Z,7.65
2023-04-26T20:02:44.037Z,7.43
2023-04-26T20:05:12.537Z,8.27
2023-04-26T20:07:40.604Z,5.15
2023-04-26T20:10:10.066Z,7.25
2023-04-26T20:12:38.073Z,7.78
2023-04-26T20:15:07.385Z,5.65
2023-04-26T20:17:36.798Z,6.72
2023-04-26T20:20:07.667Z,7.20
2023-04-26T20:22:35.720Z,5.32
2023-04-26T20:25:04.204Z,5.57
2023-04-26T20:27:32.464Z,5.65
2023-04-26T20:30:00.464Z,6.65
2023-04-26T20:32:28.596Z,5.82
2023-04-26T20:34:58.004Z,6.50
2023-04-26T20:37:25.997Z,6.55
2023-04-26T20:39:54.056Z,5.50
2023-04-26T20:42:22.102Z,6.20
2023-04-26T20:44:50.120Z,6.95
2023-04-26T20:47:18.237Z,6.65
2023-04-26T20:49:46.148Z,7.10
2023-04-26T20:52:15.614Z,5.93
2023-04-26T20:54:43.610Z,7.88
2023-04-26T20:57:11.562Z,5.82
2023-04-26T20:59:40.633Z,5.32
2023-04-26T21:02:08.986Z,4.18
2023-04-26T21:04:38.675Z,5.47
2023-04-26T21:07:07.126Z,5.55
2023-04-26T21:09:36.504Z,5.03
2023-04-26T21:12:04.616Z,8.65
2023-04-26T21:14:32.633Z,5.38
2023-04-26T21:17:01.192Z,5.25
2023-04-26T21:19:29.362Z,5.75
2023-04-26T21:21:57.314Z,6.65
2023-04-26T21:24:25.295Z,6.03
2023-04-26T21:26:54.669Z,6.28
2023-04-26T21:29:22.671Z,6.43
2023-04-26T21:31:50.791Z,7.88
2023-04-26T21:34:18.893Z,7.22
2023-04-26T21:36:47.089Z,6.22
2023-04-26T21:39:15.208Z,8.68
2023-04-26T21:41:43.328Z,9.52
2023-04-26T21:44:13.241Z,9.02
2023-04-26T21:46:41.306Z,7.07
2023-04-26T21:49:10.613Z,5.80
2023-04-26T21:51:38.815Z,11.30
2023-04-26T21:54:07.146Z,7.25
2023-04-26T21:56:35.191Z,7.85
2023-04-26T21:59:03.342Z,6.13
2023-04-26T22:01:32.734Z,6.97
2023-04-26T22:04:00.833Z,10.15
2023-04-26T22:06:29.079Z,7.20
2023-04-26T22:08:57.081Z,9.00
2023-04-26T22:11:25.116Z,8.27
2023-04-26T22:13:53.136Z,7.90
2023-04-26T22:16:21.302Z,8.30
2023-04-26T22:18:50.695Z,8.60
2023-04-26T22:21:18.724Z,8.75
2023-04-26T22:23:46.755Z,10.60
2023-04-26T22:26:14.728Z,8.20
2023-04-26T22:28:42.686Z,8.85
2023-04-26T22:31:10.673Z,8.07
2023-04-26T22:33:38.684Z,7.65
2023-04-26T22:36:08.927Z,8.48
2023-04-26T22:38:36.948Z,8.02
2023-04-26T22:41:07.103Z,7.60
2023-04-26T22:43:35.197Z,8.30
2023-04-26T22:46:03.315Z,10.48
2023-04-26T22:48:31.248Z,7.80
2023-04-26T22:50:59.957Z,10.02
2023-04-26T22:53:29.354Z,12.98
2023-04-26T22:55:57.355Z,10.65
2023-04-26T22:58:25.436Z,10.10
2023-04-26T23:00:53.431Z,10.80
2023-04-26T23:03:21.549Z,12.18
2023-04-26T23:05:49.590Z,9.90
2023-04-26T23:08:17.576Z,9.95
2023-04-26T23:10:46.932Z,7.65
2023-04-26T23:13:16.187Z,9.32
2023-04-26T23:15:44.186Z,8.73
2023-04-26T23:18:12.199Z,9.18
2023-04-26T23:20:40.175Z,9.20
2023-04-26T23:23:08.116Z,9.13
2023-04-26T23:25:36.212Z,10.82
2023-04-26T23:28:05.953Z,11.57
2023-04-26T23:30:33.978Z,8.93
2023-04-26T23:33:01.977Z,9.35
2023-04-26T23:35:30.121Z,10.10
2023-04-26T23:37:58.226Z,12.32
2023-04-26T23:40:26.234Z,8.07
2023-04-26T23:42:54.217Z,11.77
2023-04-26T23:45:23.876Z,10.82
2023-04-26T23:47:51.912Z,11.63
2023-04-26T23:50:19.966Z,9.65
2023-04-26T23:52:47.909Z,12.25
2023-04-26T23:55:15.850Z,11.95
2023-04-26T23:57:43.858Z,10.43
